CDT,Max TemperatureF,Mean TemperatureF,Min TemperatureF,Max Dew PointF,MeanDew PointF,Min DewpointF,Max Humidity, Mean Humidity, Min Humidity, Max Sea Level PressureIn, Mean Sea Level PressureIn, Min Sea Level PressureIn, Max VisibilityMiles, Mean VisibilityMiles, Min VisibilityMiles, Max Wind SpeedMPH, Mean Wind SpeedMPH, Max Gust SpeedMPH,PrecipitationIn, CloudCover, Events, WindDirDegrees
2013-6-1,80,73,66,73,64,60,93,79,64,29.96,29.84,29.73,10,8,0,25,6,33,2.54,7,Fog-Rain-Thunderstorm,39
2013-6-2,79,70,60,58,57,55,90,68,45,30.03,29.99,29.95,10,10,10,15,6,18,0.00,2,,322
2013-6-3,82,70,57,63,58,54,90,69,47,30.04,29.97,29.87,10,10,7,12,5,15,0.00,0,,85
2013-6-4,83,74,64,67,63,60,87,71,55,30.02,29.92,29.87,10,10,10,20,7,24,0.00,1,,88
2013-6-5,84,75,66,69,65,62,87,73,58,30.04,29.90,29.82,10,10,2,23,6,28,0.25,3,Rain-Thunderstorm,32
2013-6-6,79,72,65,67,62,58,90,74,58,29.92,29.88,29.85,10,10,10,15,6,18,0.00,3,,341
2013-6-7,83,71,59,59,55,51,90,62,34,29.97,29.92,29.87,10,10,10,14,5,38,0.00,1,,311
2013-6-8,86,73,59,62,57,54,84,58,32,29.96,29.90,29.83,10,10,10,10,3,15,0.00,0,,154
2013-6-9,89,79,68,66,61,55,79,57,34,29.90,29.86,29.82,10,10,10,18,6,26,0.00,0,,332
2013-6-10,95,81,66,70,65,62,93,64,34,29.92,29.88,29.84,10,10,10,18,6,24,0.00,0,,228
2013-6-11,96,83,69,71,69,66,90,65,39,29.99,29.94,29.89,10,10,10,15,6,21,0.00,0,,176
2013-6-12,94,85,76,72,70,68,76,61,46,30.01,29.94,29.88,10,10,10,18,9,29,0.00,0,,211
2013-6-13,97,86,75,75,73,71,94,71,48,29.99,29.94,29.87,10,10,7,18,6,25,0.00,0,,287
2013-6-14,93,85,76,74,71,68,79,66,52,30.01,29.95,29.89,10,10,10,13,7,16,0.00,2,,81
2013-6-15,92,83,74,72,69,67,79,65,50,30.01,29.97,29.92,10,10,10,12,5,15,0.00,2,,88
2013-6-16,92,82,71,75,72,68,93,77,60,30.03,29.95,29.89,10,8,0,17,6,25,2.70,5,Fog-Rain-Thunderstorm,84
2013-6-17,85,78,70,70,69,67,93,76,59,29.94,29.90,29.86,10,8,2,21,7,25,0.61,6,Rain-Thunderstorm,346
2013-6-18,87,79,70,70,67,64,90,69,48,29.99,29.95,29.90,10,10,10,12,4,15,0.00,1,,44
2013-6-19,90,79,68,69,67,64,90,67,44,30.04,29.98,29.93,10,10,10,12,4,15,0.00,1,,105
2013-6-20,92,81,70,74,71,66,90,71,52,30.05,30.00,29.95,10,10,7,12,6,16,0.00,1,,114
2013-6-21,95,85,75,74,72,70,94,70,46,30.06,30.02,29.97,10,10,7,13,5,17,0.00,0,,131
2013-6-22,93,84,75,74,71,68,87,67,46,30.05,29.99,29.91,10,10,10,14,6,17,0.00,0,,121
2013-6-23,94,84,74,73,70,67,93,67,41,29.99,29.95,29.90,10,10,7,16,6,20,0.00,0,,124
2013-6-24,93,84,74,73,70,67,87,66,44,30.04,29.98,29.93,10,10,7,16,5,22,0.00,0,,136
2013-6-25,91,84,76,72,70,69,87,70,52,29.96,29.92,29.84,10,10,10,20,7,26,0.00,0,,178
2013-6-26,96,86,75,74,72,70,87,67,46,29.91,29.87,29.83,10,10,10,16,7,21,0.00,0,,211
2013-6-27,101,89,77,76,73,70,91,64,37,29.94,29.90,29.82,10,10,7,14,4,17,0.00,0,,228
2013-6-28,98,89,80,75,69,62,74,54,33,29.88,29.84,29.78,10,10,10,18,9,24,0.00,0,,311
2013-6-29,92,81,70,66,58,52,78,53,27,29.86,29.82,29.76,10,10,10,20,9,29,0.00,0,,320
2013-6-30,86,78,69,61,58,55,66,53,40,29.92,29.87,29.81,10,10,10,21,9,28,0.00,1,,339